MHTG/TGU METAR and TAF weather

Enter ICAO airport designator
Station Type Date Time Source
MHTG METAR 2022/06/27 16:00 UTC NOAA

MHTG 271600Z 02005KT 9999 SCT030 25/17 Q1023 A3021 NOSIG


Station Type Date Time Source
MHTG Decoded METAR 2022/06/27 16:00 UTC NOAA

Tegucigalpa, Honduras (MHTG) 14-03N 087-13W 1007M
Jun 27, 2022 - 12:00 PM EDT / 2022.06.27 1600 UTC
Wind: from the NNE (020 degrees) at 6 MPH (5 KT):0
Visibility: greater than 7 mile(s):0
Sky conditions: partly cloudy
Temperature: 77 F (25 C)
Dew Point: 62 F (17 C)
Relative Humidity: 61%
Pressure (altimeter): 30.21 in. Hg (1023 hPa)
ob: MHTG 271600Z 02005KT 9999 SCT030 25/17 Q1023 A3021 NOSIG
cycle: 16

Station Type Date Time Source
MHTG TAF 2022/06/27 12:03 UTC NOAA

TAF MHTG 271100Z 2712/2812 VRB03KT 9999 SCT028 TX29/2721Z TN17/2812Z
BECMG 2718/2720 03010KT
BECMG 2718/2720 VRB03KT

Example: see airport list